sensor_id;sensor_type;location;lat;lon;timestamp;pressure;altitude;pressure_sealevel;temperature;humidity
29569;BME280;16501;51.462;14.346;2022-08-25T00:00:10;100604.66;;;20.16;95.72
29569;BME280;16501;51.462;14.346;2022-08-25T00:02:36;100597.00;;;20.06;95.65
29569;BME280;16501;51.462;14.346;2022-08-25T00:05:02;100591.59;;;20.02;95.71
29569;BME280;16501;51.462;14.346;2022-08-25T00:07:28;100602.41;;;20.09;95.87
29569;BME280;16501;51.462;14.346;2022-08-25T00:09:53;100594.00;;;19.98;96.56
29569;BME280;16501;51.462;14.346;2022-08-25T00:12:18;100595.81;;;19.95;96.61
29569;BME280;16501;51.462;14.346;2022-08-25T00:14:44;100597.34;;;19.96;96.75
29569;BME280;16501;51.462;14.346;2022-08-25T00:17:09;100590.91;;;19.96;96.59
29569;BME280;16501;51.462;14.346;2022-08-25T00:19:36;100593.75;;;19.96;96.52
29569;BME280;16501;51.462;14.346;2022-08-25T00:22:02;100582.75;;;19.81;96.25
29569;BME280;16501;51.462;14.346;2022-08-25T00:24:28;100593.53;;;19.88;96.05
29569;BME280;16501;51.462;14.346;2022-08-25T00:26:55;100594.56;;;19.91;96.09
29569;BME280;16501;51.462;14.346;2022-08-25T00:29:22;100590.00;;;19.82;96.28
29569;BME280;16501;51.462;14.346;2022-08-25T00:31:47;100564.03;;;19.61;96.35
29569;BME280;16501;51.462;14.346;2022-08-25T00:34:16;100602.38;;;19.85;96.47
29569;BME280;16501;51.462;14.346;2022-08-25T00:36:43;100588.50;;;19.70;96.53
29569;BME280;16501;51.462;14.346;2022-08-25T00:39:09;100592.41;;;19.67;96.46
29569;BME280;16501;51.462;14.346;2022-08-25T00:41:35;100591.88;;;19.68;96.43
29569;BME280;16501;51.462;14.346;2022-08-25T00:44:04;100585.69;;;19.64;96.04
29569;BME280;16501;51.462;14.346;2022-08-25T00:46:35;100586.50;;;19.65;96.16
29569;BME280;16501;51.462;14.346;2022-08-25T00:49:04;100595.31;;;19.61;96.10
29569;BME280;16501;51.462;14.346;2022-08-25T00:51:44;100590.66;;;19.58;96.14
29569;BME280;16501;51.462;14.346;2022-08-25T00:54:21;100585.56;;;19.45;96.49
29569;BME280;16501;51.462;14.346;2022-08-25T00:56:48;100589.13;;;19.57;96.64
29569;BME280;16501;51.462;14.346;2022-08-25T00:59:15;100585.50;;;19.56;97.35
29569;BME280;16501;51.462;14.346;2022-08-25T01:01:42;100565.66;;;19.45;97.22
29569;BME280;16501;51.462;14.346;2022-08-25T01:04:07;100562.06;;;19.45;97.94
29569;BME280;16501;51.462;14.346;2022-08-25T01:06:35;100583.94;;;19.61;97.95
29569;BME280;16501;51.462;14.346;2022-08-25T01:09:03;100568.50;;;19.45;97.68
29569;BME280;16501;51.462;14.346;2022-08-25T01:11:29;100582.38;;;19.60;97.77
29569;BME280;16501;51.462;14.346;2022-08-25T01:13:55;100567.47;;;19.48;97.44
29569;BME280;16501;51.462;14.346;2022-08-25T01:16:21;100580.09;;;19.53;97.67
29569;BME280;16501;51.462;14.346;2022-08-25T01:18:53;100582.94;;;19.53;97.52
29569;BME280;16501;51.462;14.346;2022-08-25T01:21:22;100584.25;;;19.52;97.44
29569;BME280;16501;51.462;14.346;2022-08-25T01:23:49;100593.06;;;19.48;98.51
29569;BME280;16501;51.462;14.346;2022-08-25T01:26:20;100585.28;;;19.49;98.96
29569;BME280;16501;51.462;14.346;2022-08-25T01:28:48;100566.00;;;19.36;99.22
29569;BME280;16501;51.462;14.346;2022-08-25T01:31:34;100582.50;;;19.43;98.67
29569;BME280;16501;51.462;14.346;2022-08-25T01:34:01;100571.41;;;19.39;98.56
29569;BME280;16501;51.462;14.346;2022-08-25T01:36:27;100574.25;;;19.39;98.46
29569;BME280;16501;51.462;14.346;2022-08-25T01:38:53;100572.22;;;19.34;98.49
29569;BME280;16501;51.462;14.346;2022-08-25T01:44:10;100574.88;;;19.27;98.68
29569;BME280;16501;51.462;14.346;2022-08-25T01:46:36;100582.31;;;19.35;99.03
29569;BME280;16501;51.462;14.346;2022-08-25T01:49:03;100576.38;;;19.33;99.23
29569;BME280;16501;51.462;14.346;2022-08-25T01:51:33;100574.56;;;19.30;99.38
29569;BME280;16501;51.462;14.346;2022-08-25T01:53:59;100563.50;;;19.27;99.59
29569;BME280;16501;51.462;14.346;2022-08-25T01:56:24;100559.91;;;19.20;99.39
29569;BME280;16501;51.462;14.346;2022-08-25T01:58:49;100551.91;;;19.19;99.40
29569;BME280;16501;51.462;14.346;2022-08-25T02:01:18;100554.50;;;19.17;99.68
29569;BME280;16501;51.462;14.346;2022-08-25T02:03:46;100572.78;;;19.27;99.98
29569;BME280;16501;51.462;14.346;2022-08-25T02:06:14;100550.91;;;19.16;100.00
29569;BME280;16501;51.462;14.346;2022-08-25T02:08:40;100571.50;;;19.28;100.00
29569;BME280;16501;51.462;14.346;2022-08-25T02:11:09;100571.22;;;19.26;100.00
29569;BME280;16501;51.462;14.346;2022-08-25T02:13:36;100568.38;;;19.26;100.00
29569;BME280;16501;51.462;14.346;2022-08-25T02:16:02;100565.06;;;19.22;100.00
29569;BME280;16501;51.462;14.346;2022-08-25T02:18:28;100569.47;;;19.23;100.00
29569;BME280;16501;51.462;14.346;2022-08-25T02:20:53;100535.00;;;18.96;100.00
29569;BME280;16501;51.462;14.346;2022-08-25T02:23:18;100554.59;;;19.06;100.00
29569;BME280;16501;51.462;14.346;2022-08-25T02:25:44;100543.00;;;18.98;100.00
29569;BME280;16501;51.462;14.346;2022-08-25T02:28:09;100560.56;;;18.96;100.00
29569;BME280;16501;51.462;14.346;2022-08-25T02:30:40;100556.91;;;19.01;100.00
29569;BME280;16501;51.462;14.346;2022-08-25T02:33:06;100556.44;;;18.97;100.00
29569;BME280;16501;51.462;14.346;2022-08-25T02:35:33;100549.47;;;18.98;100.00
29569;BME280;16501;51.462;14.346;2022-08-25T02:37:58;100542.25;;;18.92;100.00
29569;BME280;16501;51.462;14.346;2022-08-25T02:40:23;100536.88;;;18.82;100.00
29569;BME280;16501;51.462;14.346;2022-08-25T02:42:49;100556.69;;;18.99;100.00
29569;BME280;16501;51.462;14.346;2022-08-25T02:45:15;100550.19;;;19.05;100.00
29569;BME280;16501;51.462;14.346;2022-08-25T02:47:41;100539.06;;;19.07;100.00
29569;BME280;16501;51.462;14.346;2022-08-25T02:50:07;100549.09;;;19.13;100.00
29569;BME280;16501;51.462;14.346;2022-08-25T02:52:34;100534.41;;;19.09;100.00
29569;BME280;16501;51.462;14.346;2022-08-25T02:55:01;100543.63;;;19.21;100.00
29569;BME280;16501;51.462;14.346;2022-08-25T02:57:28;100539.88;;;19.01;100.00
29569;BME280;16501;51.462;14.346;2022-08-25T02:59:54;100514.38;;;18.90;100.00
29569;BME280;16501;51.462;14.346;2022-08-25T03:02:19;100536.72;;;19.11;100.00
29569;BME280;16501;51.462;14.346;2022-08-25T03:04:44;100549.84;;;19.19;100.00
29569;BME280;16501;51.462;14.346;2022-08-25T03:07:10;100536.97;;;19.13;100.00
29569;BME280;16501;51.462;14.346;2022-08-25T03:09:36;100538.25;;;19.12;100.00
29569;BME280;16501;51.462;14.346;2022-08-25T03:12:02;100543.91;;;19.17;100.00
29569;BME280;16501;51.462;14.346;2022-08-25T03:14:27;100525.91;;;19.03;100.00
29569;BME280;16501;51.462;14.346;2022-08-25T03:16:54;100525.19;;;18.97;100.00
29569;BME280;16501;51.462;14.346;2022-08-25T03:19:19;100542.16;;;19.09;100.00
29569;BME280;16501;51.462;14.346;2022-08-25T03:21:44;100543.22;;;19.06;100.00
29569;BME280;16501;51.462;14.346;2022-08-25T03:24:10;100544.50;;;19.05;100.00
29569;BME280;16501;51.462;14.346;2022-08-25T03:26:35;100516.72;;;18.86;100.00
29569;BME280;16501;51.462;14.346;2022-08-25T03:29:29;100538.88;;;18.99;100.00
29569;BME280;16501;51.462;14.346;2022-08-25T03:31:54;100526.88;;;18.64;100.00
29569;BME280;16501;51.462;14.346;2022-08-25T03:34:22;100531.72;;;18.81;100.00
29569;BME280;16501;51.462;14.346;2022-08-25T03:36:50;100527.31;;;18.86;100.00
29569;BME280;16501;51.462;14.346;2022-08-25T03:39:17;100525.75;;;18.79;100.00
29569;BME280;16501;51.462;14.346;2022-08-25T03:41:43;100522.44;;;18.75;100.00
29569;BME280;16501;51.462;14.346;2022-08-25T03:44:08;100520.91;;;18.68;100.00
29569;BME280;16501;51.462;14.346;2022-08-25T03:46:43;100529.66;;;18.76;100.00
29569;BME280;16501;51.462;14.346;2022-08-25T03:49:12;100528.88;;;18.81;100.00
29569;BME280;16501;51.462;14.346;2022-08-25T03:51:41;100521.44;;;18.66;100.00
29569;BME280;16501;51.462;14.346;2022-08-25T03:54:08;100537.69;;;18.72;100.00
29569;BME280;16501;51.462;14.346;2022-08-25T03:56:34;100521.75;;;18.57;100.00
29569;BME280;16501;51.462;14.346;2022-08-25T03:58:59;100532.78;;;18.66;100.00
29569;BME280;16501;51.462;14.346;2022-08-25T04:01:25;100539.78;;;18.65;100.00
29569;BME280;16501;51.462;14.346;2022-08-25T04:03:51;100525.09;;;18.56;100.00
29569;BME280;16501;51.462;14.346;2022-08-25T04:06:17;100539.50;;;18.63;100.00
29569;BME280;16501;51.462;14.346;2022-08-25T04:08:43;100540.34;;;18.58;100.00
29569;BME280;16501;51.462;14.346;2022-08-25T04:11:11;100534.66;;;18.58;100.00
29569;BME280;16501;51.462;14.346;2022-08-25T04:13:38;100531.53;;;18.56;100.00
29569;BME280;16501;51.462;14.346;2022-08-25T04:16:10;100509.72;;;18.34;100.00
29569;BME280;16501;51.462;14.346;2022-08-25T04:18:37;100543.19;;;18.53;100.00
29569;BME280;16501;51.462;14.346;2022-08-25T04:21:04;100538.56;;;18.50;100.00
29569;BME280;16501;51.462;14.346;2022-08-25T04:23:30;100524.44;;;18.33;100.00
29569;BME280;16501;51.462;14.346;2022-08-25T04:25:55;100535.97;;;18.46;100.00
29569;BME280;16501;51.462;14.346;2022-08-25T04:28:20;100524.44;;;18.33;100.00
29569;BME280;16501;51.462;14.346;2022-08-25T04:30:45;100547.09;;;18.50;100.00
29569;BME280;16501;51.462;14.346;2022-08-25T04:33:11;100537.56;;;18.41;100.00
29569;BME280;16501;51.462;14.346;2022-08-25T04:35:37;100528.53;;;18.43;100.00
29569;BME280;16501;51.462;14.346;2022-08-25T04:38:03;100523.63;;;18.32;100.00
29569;BME280;16501;51.462;14.346;2022-08-25T04:40:28;100528.78;;;18.34;100.00
29569;BME280;16501;51.462;14.346;2022-08-25T04:42:53;100544.28;;;18.38;100.00
29569;BME280;16501;51.462;14.346;2022-08-25T04:45:18;100543.47;;;18.43;100.00
29569;BME280;16501;51.462;14.346;2022-08-25T04:47:44;100524.91;;;18.37;100.00
29569;BME280;16501;51.462;14.346;2022-08-25T04:50:09;100548.38;;;18.49;100.00
29569;BME280;16501;51.462;14.346;2022-08-25T04:52:35;100553.78;;;18.52;100.00
29569;BME280;16501;51.462;14.346;2022-08-25T04:55:01;100543.69;;;18.51;100.00
29569;BME280;16501;51.462;14.346;2022-08-25T04:57:26;100546.25;;;18.60;100.00
29569;BME280;16501;51.462;14.346;2022-08-25T04:59:52;100535.69;;;18.55;100.00
29569;BME280;16501;51.462;14.346;2022-08-25T05:02:18;100535.19;;;18.57;100.00
29569;BME280;16501;51.462;14.346;2022-08-25T05:04:43;100526.94;;;18.53;100.00
29569;BME280;16501;51.462;14.346;2022-08-25T05:07:08;100539.50;;;18.63;100.00
29569;BME280;16501;51.462;14.346;2022-08-25T05:09:34;100540.06;;;18.62;100.00
29569;BME280;16501;51.462;14.346;2022-08-25T05:12:00;100546.22;;;18.66;100.00
29569;BME280;16501;51.462;14.346;2022-08-25T05:14:26;100552.13;;;18.74;100.00
29569;BME280;16501;51.462;14.346;2022-08-25T05:16:51;100563.75;;;18.76;100.00
29569;BME280;16501;51.462;14.346;2022-08-25T05:19:17;100556.00;;;18.76;100.00
29569;BME280;16501;51.462;14.346;2022-08-25T05:21:42;100557.28;;;18.81;100.00
29569;BME280;16501;51.462;14.346;2022-08-25T05:24:07;100561.16;;;18.83;100.00
29569;BME280;16501;51.462;14.346;2022-08-25T05:26:33;100544.88;;;18.84;100.00
29569;BME280;16501;51.462;14.346;2022-08-25T05:29:02;100515.03;;;18.60;100.00
29569;BME280;16501;51.462;14.346;2022-08-25T05:31:29;100558.31;;;18.83;100.00
29569;BME280;16501;51.462;14.346;2022-08-25T05:33:55;100562.94;;;18.87;100.00
29569;BME280;16501;51.462;14.346;2022-08-25T05:36:21;100543.34;;;18.83;100.00
29569;BME280;16501;51.462;14.346;2022-08-25T05:38:47;100524.50;;;18.74;100.00
29569;BME280;16501;51.462;14.346;2022-08-25T05:41:15;100524.00;;;18.70;100.00
29569;BME280;16501;51.462;14.346;2022-08-25T05:43:42;100546.69;;;18.81;100.00
29569;BME280;16501;51.462;14.346;2022-08-25T05:46:08;100563.91;;;19.00;100.00
29569;BME280;16501;51.462;14.346;2022-08-25T05:48:34;100565.94;;;19.06;100.00
29569;BME280;16501;51.462;14.346;2022-08-25T05:51:02;100565.63;;;19.15;100.00
29569;BME280;16501;51.462;14.346;2022-08-25T05:53:29;100562.47;;;19.24;100.00
29569;BME280;16501;51.462;14.346;2022-08-25T05:55:56;100561.06;;;19.42;100.00
29569;BME280;16501;51.462;14.346;2022-08-25T05:58:23;100559.69;;;19.49;100.00
29569;BME280;16501;51.462;14.346;2022-08-25T06:00:49;100564.84;;;19.56;100.00
29569;BME280;16501;51.462;14.346;2022-08-25T06:03:15;100564.03;;;19.61;100.00
29569;BME280;16501;51.462;14.346;2022-08-25T06:05:41;100568.34;;;19.68;100.00
29569;BME280;16501;51.462;14.346;2022-08-25T06:08:06;100566.00;;;19.72;100.00
29569;BME280;16501;51.462;14.346;2022-08-25T06:10:32;100547.44;;;19.65;100.00
29569;BME280;16501;51.462;14.346;2022-08-25T06:12:57;100556.09;;;19.84;100.00
29569;BME280;16501;51.462;14.346;2022-08-25T06:15:23;100551.50;;;19.75;100.00
29569;BME280;16501;51.462;14.346;2022-08-25T06:17:50;100559.63;;;19.90;100.00
29569;BME280;16501;51.462;14.346;2022-08-25T06:20:22;100539.53;;;19.83;100.00
29569;BME280;16501;51.462;14.346;2022-08-25T06:22:48;100530.47;;;19.84;100.00
29569;BME280;16501;51.462;14.346;2022-08-25T06:25:15;100552.00;;;20.04;100.00
29569;BME280;16501;51.462;14.346;2022-08-25T06:27:40;100557.88;;;20.12;100.00
29569;BME280;16501;51.462;14.346;2022-08-25T06:30:09;100538.19;;;20.14;100.00
29569;BME280;16501;51.462;14.346;2022-08-25T06:32:36;100546.44;;;20.18;100.00
29569;BME280;16501;51.462;14.346;2022-08-25T06:35:04;100550.69;;;20.30;100.00
29569;BME280;16501;51.462;14.346;2022-08-25T06:37:31;100556.03;;;20.39;100.00
29569;BME280;16501;51.462;14.346;2022-08-25T06:39:56;100544.63;;;20.39;100.00
29569;BME280;16501;51.462;14.346;2022-08-25T06:42:21;100554.84;;;20.53;100.00
29569;BME280;16501;51.462;14.346;2022-08-25T06:44:47;100540.94;;;20.44;100.00
29569;BME280;16501;51.462;14.346;2022-08-25T06:47:13;100553.16;;;20.64;100.00
29569;BME280;16501;51.462;14.346;2022-08-25T06:49:40;100536.13;;;20.58;100.00
29569;BME280;16501;51.462;14.346;2022-08-25T06:52:05;100553.16;;;20.64;100.00
29569;BME280;16501;51.462;14.346;2022-08-25T06:54:30;100553.03;;;20.75;100.00
29569;BME280;16501;51.462;14.346;2022-08-25T06:56:56;100544.06;;;20.65;100.00
29569;BME280;16501;51.462;14.346;2022-08-25T06:59:21;100553.56;;;20.74;100.00
29569;BME280;16501;51.462;14.346;2022-08-25T07:01:46;100554.88;;;20.91;100.00
29569;BME280;16501;51.462;14.346;2022-08-25T07:04:12;100554.56;;;20.95;100.00
29569;BME280;16501;51.462;14.346;2022-08-25T07:06:37;100542.72;;;20.91;100.00
29569;BME280;16501;51.462;14.346;2022-08-25T07:09:05;100541.09;;;20.96;100.00
29569;BME280;16501;51.462;14.346;2022-08-25T07:11:31;100548.84;;;21.14;100.00
29569;BME280;16501;51.462;14.346;2022-08-25T07:14:00;100542.53;;;21.21;100.00
29569;BME280;16501;51.462;14.346;2022-08-25T07:16:26;100543.44;;;21.29;100.00
29569;BME280;16501;51.462;14.346;2022-08-25T07:18:52;100537.88;;;21.37;100.00
29569;BME280;16501;51.462;14.346;2022-08-25T07:21:22;100547.66;;;21.42;100.00
29569;BME280;16501;51.462;14.346;2022-08-25T07:23:47;100545.53;;;21.48;100.00
29569;BME280;16501;51.462;14.346;2022-08-25T07:26:16;100547.63;;;21.61;100.00
29569;BME280;16501;51.462;14.346;2022-08-25T07:28:41;100547.78;;;21.69;100.00
29569;BME280;16501;51.462;14.346;2022-08-25T07:31:07;100533.25;;;21.66;100.00
29569;BME280;16501;51.462;14.346;2022-08-25T07:33:32;100544.06;;;21.87;100.00
29569;BME280;16501;51.462;14.346;2022-08-25T07:35:57;100552.44;;;21.98;100.00
29569;BME280;16501;51.462;14.346;2022-08-25T07:38:23;100541.03;;;21.98;100.00
29569;BME280;16501;51.462;14.346;2022-08-25T07:40:48;100547.72;;;22.14;100.00
29569;BME280;16501;51.462;14.346;2022-08-25T07:43:19;100538.88;;;22.31;100.00
29569;BME280;16501;51.462;14.346;2022-08-25T07:45:45;100542.25;;;22.43;100.00
29569;BME280;16501;51.462;14.346;2022-08-25T07:48:11;100534.22;;;22.55;100.00
29569;BME280;16501;51.462;14.346;2022-08-25T07:50:40;100538.84;;;22.58;100.00
29569;BME280;16501;51.462;14.346;2022-08-25T07:53:10;100531.16;;;22.66;100.00
29569;BME280;16501;51.462;14.346;2022-08-25T07:55:35;100523.88;;;22.65;100.00
29569;BME280;16501;51.462;14.346;2022-08-25T07:58:03;100522.56;;;22.66;100.00
29569;BME280;16501;51.462;14.346;2022-08-25T08:00:29;100522.53;;;22.79;100.00
29569;BME280;16501;51.462;14.346;2022-08-25T08:02:58;100540.19;;;22.91;100.00
29569;BME280;16501;51.462;14.346;2022-08-25T08:05:24;100537.09;;;23.03;100.00
29569;BME280;16501;51.462;14.346;2022-08-25T08:07:51;100533.25;;;23.13;99.67
29569;BME280;16501;51.462;14.346;2022-08-25T08:10:18;100532.75;;;23.23;99.47
29569;BME280;16501;51.462;14.346;2022-08-25T08:12:43;100537.78;;;23.30;97.68
29569;BME280;16501;51.462;14.346;2022-08-25T08:15:10;100525.63;;;23.37;97.41
29569;BME280;16501;51.462;14.346;2022-08-25T08:17:35;100533.97;;;23.48;95.66
29569;BME280;16501;51.462;14.346;2022-08-25T08:20:02;100541.63;;;23.53;96.67
29569;BME280;16501;51.462;14.346;2022-08-25T08:22:30;100529.13;;;23.64;95.27
29569;BME280;16501;51.462;14.346;2022-08-25T08:24:55;100525.78;;;23.73;95.86
29569;BME280;16501;51.462;14.346;2022-08-25T08:27:20;100509.78;;;23.78;94.36
29569;BME280;16501;51.462;14.346;2022-08-25T08:29:45;100526.13;;;23.91;93.70
29569;BME280;16501;51.462;14.346;2022-08-25T08:32:11;100519.91;;;24.00;93.95
29569;BME280;16501;51.462;14.346;2022-08-25T08:34:39;100507.31;;;24.03;93.63
29569;BME280;16501;51.462;14.346;2022-08-25T08:37:08;100524.09;;;24.28;92.57
29569;BME280;16501;51.462;14.346;2022-08-25T08:39:33;100527.53;;;24.34;91.27
29569;BME280;16501;51.462;14.346;2022-08-25T08:50:03;100520.69;;;24.74;88.77
29569;BME280;16501;51.462;14.346;2022-08-25T08:55:10;100519.75;;;24.79;87.44
29569;BME280;16501;51.462;14.346;2022-08-25T08:57:38;100513.41;;;24.73;88.36
29569;BME280;16501;51.462;14.346;2022-08-25T09:00:07;100512.72;;;24.88;86.65
29569;BME280;16501;51.462;14.346;2022-08-25T09:02:55;100515.41;;;25.01;87.53
29569;BME280;16501;51.462;14.346;2022-08-25T09:05:24;100507.59;;;25.09;86.24
29569;BME280;16501;51.462;14.346;2022-08-25T09:07:56;100523.94;;;25.30;84.16
29569;BME280;16501;51.462;14.346;2022-08-25T09:10:25;100519.88;;;25.25;84.19
29569;BME280;16501;51.462;14.346;2022-08-25T09:15:51;100500.06;;;24.75;86.36
29569;BME280;16501;51.462;14.346;2022-08-25T09:18:50;100506.00;;;24.77;86.29
29569;BME280;16501;51.462;14.346;2022-08-25T09:21:34;100512.28;;;24.76;87.16
29569;BME280;16501;51.462;14.346;2022-08-25T09:27:07;100507.28;;;25.28;86.09
29569;BME280;16501;51.462;14.346;2022-08-25T09:29:53;100492.34;;;25.30;85.53
29569;BME280;16501;51.462;14.346;2022-08-25T09:32:21;100508.81;;;25.60;84.23
29569;BME280;16501;51.462;14.346;2022-08-25T09:34:47;100495.44;;;25.47;83.37
29569;BME280;16501;51.462;14.346;2022-08-25T09:37:13;100509.00;;;25.39;84.24
29569;BME280;16501;51.462;14.346;2022-08-25T09:39:39;100481.81;;;25.17;85.15
29569;BME280;16501;51.462;14.346;2022-08-25T09:42:06;100492.13;;;25.12;85.39
29569;BME280;16501;51.462;14.346;2022-08-25T09:44:42;100488.06;;;25.00;85.57
29569;BME280;16501;51.462;14.346;2022-08-25T09:49:44;100487.09;;;24.90;87.95
29569;BME280;16501;51.462;14.346;2022-08-25T09:52:35;100464.66;;;24.65;87.08
29569;BME280;16501;51.462;14.346;2022-08-25T09:57:43;100465.97;;;24.56;87.77
29569;BME280;16501;51.462;14.346;2022-08-25T10:00:31;100470.03;;;24.69;88.16
29569;BME280;16501;51.462;14.346;2022-08-25T10:03:19;100467.63;;;25.03;88.16
29569;BME280;16501;51.462;14.346;2022-08-25T10:08:34;100472.84;;;25.67;85.32
29569;BME280;16501;51.462;14.346;2022-08-25T10:11:02;100454.47;;;25.62;86.35
29569;BME280;16501;51.462;14.346;2022-08-25T10:13:49;100471.28;;;25.96;83.75
29569;BME280;16501;51.462;14.346;2022-08-25T10:16:29;100459.97;;;26.06;80.87
29569;BME280;16501;51.462;14.346;2022-08-25T10:19:13;100456.09;;;26.19;81.66
29569;BME280;16501;51.462;14.346;2022-08-25T10:22:07;100460.88;;;26.24;83.59
29569;BME280;16501;51.462;14.346;2022-08-25T10:24:34;100462.66;;;25.96;79.67
29569;BME280;16501;51.462;14.346;2022-08-25T10:27:05;100448.31;;;25.73;80.88
29569;BME280;16501;51.462;14.346;2022-08-25T10:29:59;100457.69;;;25.97;82.98
29569;BME280;16501;51.462;14.346;2022-08-25T10:32:49;100452.63;;;26.28;81.94
29569;BME280;16501;51.462;14.346;2022-08-25T10:35:44;100441.00;;;26.11;79.27
29569;BME280;16501;51.462;14.346;2022-08-25T10:38:24;100440.84;;;25.93;80.55
29569;BME280;16501;51.462;14.346;2022-08-25T10:41:13;100434.94;;;25.68;80.86
29569;BME280;16501;51.462;14.346;2022-08-25T10:46:44;100430.91;;;25.64;82.63
29569;BME280;16501;51.462;14.346;2022-08-25T10:49:26;100424.22;;;25.76;81.42
29569;BME280;16501;51.462;14.346;2022-08-25T10:52:20;100418.22;;;25.90;80.18
29569;BME280;16501;51.462;14.346;2022-08-25T10:55:03;100423.38;;;26.07;78.37
29569;BME280;16501;51.462;14.346;2022-08-25T10:57:57;100422.13;;;26.33;80.62
29569;BME280;16501;51.462;14.346;2022-08-25T11:00:32;100424.41;;;26.34;77.99
29569;BME280;16501;51.462;14.346;2022-08-25T11:03:13;100425.50;;;26.47;75.23
29569;BME280;16501;51.462;14.346;2022-08-25T11:05:46;100417.75;;;26.32;77.44
29569;BME280;16501;51.462;14.346;2022-08-25T11:08:30;100426.25;;;26.14;77.56
29569;BME280;16501;51.462;14.346;2022-08-25T11:11:06;100415.56;;;26.00;77.23
29569;BME280;16501;51.462;14.346;2022-08-25T11:13:46;100401.13;;;26.15;77.02
29569;BME280;16501;51.462;14.346;2022-08-25T11:16:18;100403.88;;;26.46;77.25
29569;BME280;16501;51.462;14.346;2022-08-25T11:18:54;100398.34;;;26.73;77.34
29569;BME280;16501;51.462;14.346;2022-08-25T11:21:27;100384.47;;;26.87;75.22
29569;BME280;16501;51.462;14.346;2022-08-25T11:26:58;100390.75;;;27.18;73.16
29569;BME280;16501;51.462;14.346;2022-08-25T11:29:29;100382.81;;;27.01;71.61
29569;BME280;16501;51.462;14.346;2022-08-25T11:31:57;100387.84;;;27.18;74.14
29569;BME280;16501;51.462;14.346;2022-08-25T11:34:24;100387.69;;;27.16;73.46
29569;BME280;16501;51.462;14.346;2022-08-25T11:36:54;100384.94;;;27.01;73.86
29569;BME280;16501;51.462;14.346;2022-08-25T11:39:37;100386.81;;;27.06;73.52
29569;BME280;16501;51.462;14.346;2022-08-25T11:50:32;100390.41;;;27.14;71.56
29569;BME280;16501;51.462;14.346;2022-08-25T11:58:30;100386.84;;;27.23;73.22
29569;BME280;16501;51.462;14.346;2022-08-25T12:00:58;100388.22;;;27.22;74.47
29569;BME280;16501;51.462;14.346;2022-08-25T12:06:21;100373.38;;;26.83;74.05
29569;BME280;16501;51.462;14.346;2022-08-25T12:11:46;100377.72;;;27.17;72.41
29569;BME280;16501;51.462;14.346;2022-08-25T12:30:02;100364.69;;;27.59;67.98
29569;BME280;16501;51.462;14.346;2022-08-25T12:35:36;100357.72;;;27.62;68.90
29569;BME280;16501;51.462;14.346;2022-08-25T12:38:09;100363.31;;;27.77;68.81
29569;BME280;16501;51.462;14.346;2022-08-25T12:45:46;100361.63;;;27.92;67.57
29569;BME280;16501;51.462;14.346;2022-08-25T12:50:58;100350.50;;;27.53;68.68
29569;BME280;16501;51.462;14.346;2022-08-25T12:56:20;100348.56;;;27.56;69.15
29569;BME280;16501;51.462;14.346;2022-08-25T12:58:49;100338.16;;;27.60;67.50
29569;BME280;16501;51.462;14.346;2022-08-25T13:01:48;100343.31;;;27.79;68.49
29569;BME280;16501;51.462;14.346;2022-08-25T13:04:40;100338.97;;;27.88;66.50
29569;BME280;16501;51.462;14.346;2022-08-25T13:07:37;100331.19;;;27.98;67.38
29569;BME280;16501;51.462;14.346;2022-08-25T13:12:57;100336.47;;;27.92;67.83
29569;BME280;16501;51.462;14.346;2022-08-25T13:15:41;100326.53;;;28.03;69.05
29569;BME280;16501;51.462;14.346;2022-08-25T13:18:30;100340.25;;;28.12;67.78
29569;BME280;16501;51.462;14.346;2022-08-25T13:23:35;100333.16;;;27.96;66.61
29569;BME280;16501;51.462;14.346;2022-08-25T13:26:02;100324.94;;;27.92;65.70
29569;BME280;16501;51.462;14.346;2022-08-25T13:28:35;100314.94;;;27.93;66.06
29569;BME280;16501;51.462;14.346;2022-08-25T13:31:08;100322.06;;;28.19;66.82
29569;BME280;16501;51.462;14.346;2022-08-25T13:33:49;100326.13;;;28.34;64.81
29569;BME280;16501;51.462;14.346;2022-08-25T13:36:16;100329.59;;;28.32;65.73
29569;BME280;16501;51.462;14.346;2022-08-25T13:39:20;100322.63;;;28.35;64.88
29569;BME280;16501;51.462;14.346;2022-08-25T13:41:56;100307.59;;;28.37;64.62
29569;BME280;16501;51.462;14.346;2022-08-25T13:44:35;100297.81;;;28.23;64.83
29569;BME280;16501;51.462;14.346;2022-08-25T13:47:12;100301.97;;;28.29;65.30
29569;BME280;16501;51.462;14.346;2022-08-25T13:49:45;100305.75;;;28.32;63.94
29569;BME280;16501;51.462;14.346;2022-08-25T13:52:31;100310.94;;;28.33;65.54
29569;BME280;16501;51.462;14.346;2022-08-25T13:54:58;100305.81;;;28.42;65.65
29569;BME280;16501;51.462;14.346;2022-08-25T13:57:26;100299.59;;;28.45;66.56
29569;BME280;16501;51.462;14.346;2022-08-25T14:00:07;100302.50;;;28.45;64.22
29569;BME280;16501;51.462;14.346;2022-08-25T14:02:46;100309.00;;;28.46;64.67
29569;BME280;16501;51.462;14.346;2022-08-25T14:05:13;100294.13;;;28.39;64.92
29569;BME280;16501;51.462;14.346;2022-08-25T14:07:52;100299.59;;;28.45;65.49
29569;BME280;16501;51.462;14.346;2022-08-25T14:10:33;100306.13;;;28.46;65.89
29569;BME280;16501;51.462;14.346;2022-08-25T14:15:33;100286.28;;;28.23;65.49
29569;BME280;16501;51.462;14.346;2022-08-25T14:18:12;100309.06;;;28.28;66.57